Time;durP1;ratioP1;P1;durP2;ratioP2;P2;SDS_P1;SDS_P2;PMS_P1;PMS_P2;Temp;Humidity;BMP_temperature;BMP_pressure;BME280_temperature;BME280_humidity;BME280_pressure;Samples;Min_cycle;Max_cycle;Signal;HPM_P1;HPM_P2
2021/08/24 00:00:09;;;;;;;33.70;18.10;;;13.60;99.90;;;;;;5042135;28;20045;-75
2021/08/24 00:02:35;;;;;;;36.50;19.35;;;13.70;99.90;;;;;;5053135;28;20473;-75
2021/08/24 00:05:01;;;;;;;41.35;21.63;;;13.80;99.90;;;;;;5067288;28;20119;-75
2021/08/24 00:07:26;;;;;;;27.63;13.55;;;13.90;99.90;;;;;;5070396;28;20473;-76
2021/08/24 00:09:52;;;;;;;18.10;12.73;;;13.80;99.90;;;;;;5067122;28;20509;-76
2021/08/24 00:12:18;;;;;;;18.92;11.73;;;13.80;99.90;;;;;;5053066;28;20496;-75
2021/08/24 00:14:43;;;;;;;22.92;13.43;;;13.80;99.90;;;;;;5056905;28;20041;-75
2021/08/24 00:17:10;;;;;;;19.48;13.93;;;13.90;99.90;;;;;;5052642;27;20036;-76
2021/08/24 00:19:36;;;;;;;14.35;8.95;;;13.80;99.90;;;;;;5066570;28;20041;-76
2021/08/24 00:22:02;;;;;;;15.85;10.90;;;13.60;99.90;;;;;;5033013;28;20036;-76
2021/08/24 00:24:28;;;;;;;20.35;10.90;;;13.50;99.90;;;;;;5045710;28;20044;-75
2021/08/24 00:26:53;;;;;;;16.13;12.18;;;13.40;99.90;;;;;;5052746;28;20033;-75
2021/08/24 00:29:19;;;;;;;14.57;11.57;;;13.50;99.90;;;;;;5048946;28;20024;-75
2021/08/24 00:31:45;;;;;;;23.52;14.00;;;13.50;99.90;;;;;;5032847;28;20033;-75
2021/08/24 00:34:11;;;;;;;24.13;13.98;;;13.60;99.90;;;;;;5050440;28;20044;-76
2021/08/24 00:36:36;;;;;;;30.17;16.83;;;13.70;99.90;;;;;;5050571;28;20032;-75
2021/08/24 00:39:03;;;;;;;25.92;15.73;;;13.70;99.90;;;;;;5056532;28;20049;-76
2021/08/24 00:41:29;;;;;;;28.08;16.17;;;13.70;99.90;;;;;;5050479;28;20066;-76
2021/08/24 00:43:55;;;;;;;24.70;16.42;;;13.60;99.90;;;;;;5057219;28;20041;-75
2021/08/24 00:46:32;;;;;;;23.95;13.45;;;13.60;99.90;;;;;;5056819;27;20032;-76
2021/08/24 00:49:12;;;;;;;23.08;14.85;;;13.60;99.90;;;;;;5057498;28;20029;-76
2021/08/24 00:51:40;;;;;;;25.40;15.18;;;13.60;99.90;;;;;;5070493;27;20504;-76
2021/08/24 00:54:12;;;;;;;27.40;15.20;;;13.60;99.90;;;;;;5050282;27;20029;-76
2021/08/24 00:56:39;;;;;;;;;;;13.70;99.90;;;;;;5057370;28;20116;-76
2021/08/24 00:59:05;;;;;;;25.50;14.88;;;13.60;99.90;;;;;;5059723;28;19968;-76
2021/08/24 01:01:31;;;;;;;29.35;16.15;;;13.70;99.90;;;;;;5070164;28;20466;-76
2021/08/24 01:03:58;;;;;;;32.30;18.08;;;13.70;99.90;;;;;;5045872;28;20045;-76
2021/08/24 01:06:42;;;;;;;29.30;18.95;;;13.80;99.90;;;;;;5050076;28;20090;-76
2021/08/24 01:09:43;;;;;;;37.08;19.85;;;13.80;99.90;;;;;;5054435;28;20060;-76
2021/08/24 01:12:37;;;;;;;33.80;18.48;;;13.90;99.90;;;;;;5052218;28;20033;-75
2021/08/24 01:15:09;;;;;;;28.63;17.30;;;14.00;99.90;;;;;;5047094;28;20489;-76
2021/08/24 01:17:39;;;;;;;34.42;17.60;;;14.10;99.90;;;;;;5068762;27;20044;-75
2021/08/24 01:20:25;;;;;;;22.20;15.10;;;14.10;99.90;;;;;;5032298;28;20063;-75
2021/08/24 01:23:24;;;;;;;27.90;17.00;;;14.20;99.90;;;;;;5032052;28;20546;-75
2021/08/24 01:26:05;;;;;;;28.98;17.83;;;14.20;99.90;;;;;;5039280;28;20099;-75
2021/08/24 01:29:07;;;;;;;23.98;16.33;;;14.30;99.90;;;;;;5043451;28;20544;-75
2021/08/24 01:31:48;;;;;;;26.55;16.02;;;14.40;99.90;;;;;;5069755;28;20055;-76
2021/08/24 01:34:25;;;;;;;27.27;14.82;;;14.50;99.90;;;;;;5050590;28;20040;-76
2021/08/24 01:36:53;;;;;;;38.30;21.15;;;14.60;99.90;;;;;;5041341;28;20044;-76
2021/08/24 01:39:27;;;;;;;35.60;19.63;;;14.60;99.90;;;;;;5060131;28;20048;-76
2021/08/24 01:42:19;;;;;;;28.63;17.17;;;14.60;99.90;;;;;;5052067;28;20504;-75
2021/08/24 01:45:05;;;;;;;23.35;14.43;;;14.50;99.90;;;;;;5036616;28;20120;-75
2021/08/24 01:47:54;;;;;;;26.58;17.10;;;14.40;99.90;;;;;;5031703;28;20036;-76
2021/08/24 01:50:51;;;;;;;22.83;15.50;;;14.40;99.90;;;;;;5049659;28;20049;-75
2021/08/24 01:53:31;;;;;;;23.38;15.13;;;14.40;99.90;;;;;;5033586;28;20029;-76
2021/08/24 01:56:08;;;;;;;24.48;15.77;;;14.40;99.90;;;;;;5031739;28;20124;-76
2021/08/24 01:58:59;;;;;;;27.38;15.82;;;14.40;99.90;;;;;;5055727;28;20055;-76
2021/08/24 02:01:32;;;;;;;24.85;14.35;;;14.40;99.90;;;;;;5051749;28;20389;-76
2021/08/24 02:04:01;;;;;;;25.40;15.02;;;14.40;99.90;;;;;;5059297;28;20047;-75
2021/08/24 02:06:37;;;;;;;21.02;15.05;;;14.40;99.90;;;;;;5054202;28;20025;-76
2021/08/24 02:09:11;;;;;;;27.20;16.90;;;14.40;99.90;;;;;;5063115;28;20040;-76
2021/08/24 02:11:37;;;;;;;25.05;16.63;;;14.40;99.90;;;;;;5066876;28;20029;-75
2021/08/24 02:14:08;;;;;;;26.33;17.20;;;14.40;99.90;;;;;;5057335;28;20041;-75
2021/08/24 02:16:35;;;;;;;28.55;16.70;;;14.40;99.90;;;;;;5072811;28;20474;-76
2021/08/24 02:19:14;;;;;;;23.13;15.82;;;14.30;99.90;;;;;;5071072;27;20047;-75
2021/08/24 02:22:11;;;;;;;28.05;15.93;;;14.30;99.90;;;;;;5054723;28;20043;-75
2021/08/24 02:24:42;;;;;;;25.60;16.35;;;14.30;99.90;;;;;;5049908;28;20123;-75
2021/08/24 02:27:17;;;;;;;25.45;16.75;;;14.20;99.90;;;;;;5054665;28;20032;-75
2021/08/24 02:29:43;;;;;;;24.40;15.20;;;14.20;99.90;;;;;;5053308;28;20128;-76
2021/08/24 02:32:15;;;;;;;23.92;16.05;;;14.20;99.90;;;;;;5054377;28;20123;-76
2021/08/24 02:34:52;;;;;;;26.23;14.63;;;14.20;99.90;;;;;;5071231;28;20116;-76
2021/08/24 02:37:20;;;;;;;25.70;15.82;;;14.20;99.90;;;;;;5040827;28;20037;-76
2021/08/24 02:39:59;;;;;;;28.38;17.35;;;14.20;99.90;;;;;;5045815;28;20140;-76
2021/08/24 02:42:38;;;;;;;26.77;16.35;;;14.20;99.90;;;;;;5054304;28;20035;-76
2021/08/24 02:45:16;;;;;;;24.35;14.48;;;14.20;99.90;;;;;;5035568;28;20044;-76
2021/08/24 02:47:42;;;;;;;20.55;14.20;;;14.30;99.90;;;;;;5052510;28;20029;-75
2021/08/24 02:50:11;;;;;;;26.08;16.85;;;14.20;99.90;;;;;;5050753;28;20025;-76
2021/08/24 02:52:37;;;;;;;23.75;15.77;;;14.20;99.90;;;;;;5053203;28;20037;-76
2021/08/24 02:55:07;;;;;;;23.50;14.63;;;14.20;99.90;;;;;;5051761;28;20465;-76
2021/08/24 02:57:32;;;;;;;41.67;16.95;;;14.30;99.90;;;;;;5054210;28;20062;-76
2021/08/24 02:59:58;;;;;;;23.65;14.70;;;14.30;99.90;;;;;;5052470;28;20163;-76
2021/08/24 03:02:24;;;;;;;28.60;16.05;;;14.30;99.90;;;;;;5054042;28;20084;-76
2021/08/24 03:04:50;;;;;;;24.45;14.75;;;14.30;99.90;;;;;;5066630;28;20040;-76
2021/08/24 03:07:26;;;;;;;25.88;15.50;;;14.30;99.90;;;;;;5036753;28;20037;-76
2021/08/24 03:09:54;;;;;;;26.30;15.80;;;14.40;99.90;;;;;;5052022;28;20421;-76
2021/08/24 03:12:35;;;;;;;26.20;14.63;;;14.40;99.90;;;;;;5051875;28;20029;-76
2021/08/24 03:15:24;;;;;;;35.70;18.77;;;14.40;99.90;;;;;;5051876;27;20033;-76
2021/08/24 03:18:06;;;;;;;35.25;17.98;;;14.40;99.90;;;;;;5034052;28;20045;-76
2021/08/24 03:20:37;;;;;;;35.40;18.02;;;14.50;99.90;;;;;;5033864;28;20045;-76
2021/08/24 03:23:06;;;;;;;35.53;19.88;;;14.60;99.90;;;;;;5066605;28;20039;-76
2021/08/24 03:25:32;;;;;;;39.85;20.17;;;14.60;99.90;;;;;;5033751;28;20128;-76
2021/08/24 03:27:58;;;;;;;44.58;22.60;;;14.70;99.90;;;;;;5045438;28;20515;-76
2021/08/24 03:30:24;;;;;;;38.67;20.95;;;14.70;99.90;;;;;;5039794;28;20086;-75
2021/08/24 03:32:51;;;;;;;31.33;18.05;;;14.70;99.90;;;;;;5035164;28;20021;-76
2021/08/24 03:35:19;;;;;;;37.35;19.15;;;14.80;99.90;;;;;;5043935;28;20033;-76
2021/08/24 03:37:44;;;;;;;28.75;17.08;;;14.80;99.90;;;;;;5052901;28;20506;-76
2021/08/24 03:40:12;;;;;;;31.98;17.45;;;14.80;99.90;;;;;;5051433;28;20068;-75
2021/08/24 03:42:38;;;;;;;32.30;18.80;;;14.80;99.90;;;;;;5051295;28;20140;-76
2021/08/24 03:45:06;;;;;;;31.98;19.33;;;14.80;99.90;;;;;;5068378;28;20060;-76
2021/08/24 03:47:31;;;;;;;43.50;20.83;;;14.80;99.90;;;;;;5036941;28;20151;-76
2021/08/24 03:49:57;;;;;;;43.63;21.73;;;14.80;99.90;;;;;;5033548;28;20052;-76
2021/08/24 03:52:23;;;;;;;32.35;18.38;;;14.80;99.90;;;;;;5042485;28;20032;-75
2021/08/24 03:54:48;;;;;;;36.13;19.92;;;14.80;99.90;;;;;;5066778;28;20455;-76
2021/08/24 03:57:14;;;;;;;33.47;18.23;;;14.80;99.90;;;;;;5071063;28;20028;-76
2021/08/24 03:59:39;;;;;;;34.50;21.23;;;14.80;99.90;;;;;;5051222;28;20139;-76
2021/08/24 04:02:05;;;;;;;33.78;19.25;;;14.80;99.90;;;;;;5052925;28;20085;-76
2021/08/24 04:04:32;;;;;;;35.15;21.23;;;14.90;99.90;;;;;;5059692;28;20041;-76
2021/08/24 04:06:57;;;;;;;37.13;22.02;;;14.90;99.90;;;;;;5051066;28;20098;-76
2021/08/24 04:09:23;;;;;;;42.67;22.90;;;14.90;99.90;;;;;;5062997;28;20490;-76
2021/08/24 04:11:49;;;;;;;36.72;21.13;;;14.90;99.90;;;;;;5064800;28;20088;-75
2021/08/24 04:14:14;;;;;;;35.17;19.10;;;14.90;99.90;;;;;;5064270;28;20061;-76
2021/08/24 04:16:41;;;;;;;32.00;18.88;;;14.90;99.90;;;;;;5066617;27;20041;-76
2021/08/24 04:19:08;;;;;;;34.53;19.55;;;14.90;99.90;;;;;;5048638;28;20077;-75
2021/08/24 04:21:38;;;;;;;29.75;18.30;;;15.00;99.90;;;;;;5050774;28;20141;-76
2021/08/24 04:24:04;;;;;;;36.03;20.00;;;15.10;99.90;;;;;;5050427;28;20037;-76
2021/08/24 04:26:30;;;;;;;22.83;15.07;;;15.10;99.90;;;;;;5068787;28;20033;-76
2021/08/24 04:28:56;;;;;;;22.88;14.55;;;15.10;99.90;;;;;;5047090;28;20069;-75
2021/08/24 04:31:21;;;;;;;20.38;14.38;;;15.10;99.90;;;;;;5050420;28;20059;-75
2021/08/24 04:33:47;;;;;;;16.98;11.55;;;15.00;99.90;;;;;;5068333;28;20065;-75
2021/08/24 04:36:13;;;;;;;17.73;11.73;;;14.90;99.90;;;;;;5069720;28;20500;-76
2021/08/24 04:38:38;;;;;;;20.05;12.63;;;15.00;99.90;;;;;;5057920;28;20036;-77
2021/08/24 04:41:06;;;;;;;33.75;13.18;;;14.90;99.90;;;;;;5068578;28;20064;-76
2021/08/24 04:43:33;;;;;;;20.33;11.70;;;14.80;99.90;;;;;;5047182;28;20037;-76
2021/08/24 04:45:58;;;;;;;17.42;11.00;;;14.80;99.90;;;;;;5068710;28;20040;-75
2021/08/24 04:48:24;;;;;;;12.85;8.55;;;14.70;99.90;;;;;;5066803;28;20029;-76
2021/08/24 04:50:50;;;;;;;25.30;10.95;;;14.60;99.90;;;;;;5050913;28;20039;-75
2021/08/24 04:53:15;;;;;;;63.92;13.23;;;14.50;99.90;;;;;;5065036;28;20116;-76
2021/08/24 04:55:41;;;;;;;61.38;12.45;;;14.40;99.90;;;;;;5051742;28;20036;-76
2021/08/24 04:58:07;;;;;;;23.88;10.75;;;14.20;99.90;;;;;;5065418;28;20022;-76
2021/08/24 05:00:35;;;;;;;15.45;10.68;;;14.10;99.90;;;;;;5048526;28;20053;-76
2021/08/24 05:03:01;;;;;;;25.75;12.27;;;14.00;99.90;;;;;;5065937;28;20490;-76
2021/08/24 05:05:28;;;;;;;57.38;15.23;;;14.00;99.90;;;;;;5048391;28;20097;-75
2021/08/24 05:07:53;;;;;;;136.35;19.48;;;13.90;99.90;;;;;;5050970;28;20063;-75
2021/08/24 05:10:21;;;;;;;87.78;17.17;;;13.80;99.90;;;;;;5050776;28;20530;-75
2021/08/24 05:12:47;;;;;;;51.60;16.75;;;13.80;99.90;;;;;;5056760;28;20032;-77
2021/08/24 05:15:13;;;;;;;36.03;14.93;;;13.80;99.90;;;;;;5055988;28;20033;-75
2021/08/24 05:17:39;;;;;;;16.70;11.55;;;13.80;99.90;;;;;;5049982;28;20397;-75
2021/08/24 05:20:06;;;;;;;16.80;11.63;;;13.80;99.90;;;;;;5050285;28;20056;-76
2021/08/24 05:22:31;;;;;;;17.33;11.80;;;13.80;99.90;;;;;;5032126;28;20045;-75
2021/08/24 05:24:57;;;;;;;20.40;11.73;;;13.70;99.90;;;;;;5032242;28;20534;-75
2021/08/24 05:27:23;;;;;;;19.70;12.02;;;13.70;99.90;;;;;;5054408;28;20064;-76
2021/08/24 05:29:49;;;;;;;37.70;24.75;;;13.60;99.90;;;;;;5052428;28;20482;-75
2021/08/24 05:32:14;;;;;;;23.90;12.75;;;13.60;99.90;;;;;;5047039;28;20028;-75
2021/08/24 05:34:40;;;;;;;21.75;13.50;;;13.50;99.90;;;;;;5066444;28;20029;-75
2021/08/24 05:37:06;;;;;;;21.00;13.70;;;13.60;99.90;;;;;;5068975;28;20032;-75
2021/08/24 05:39:33;;;;;;;19.08;11.43;;;13.50;99.90;;;;;;5048103;28;20045;-75
2021/08/24 05:42:00;;;;;;;17.50;10.18;;;13.50;99.90;;;;;;5069956;28;20036;-76
2021/08/24 05:44:25;;;;;;;15.40;10.68;;;13.50;99.90;;;;;;5071084;28;20107;-75
2021/08/24 05:46:51;;;;;;;14.95;10.77;;;13.60;99.90;;;;;;5050300;28;20124;-76
2021/08/24 05:49:17;;;;;;;15.07;9.73;;;13.60;99.90;;;;;;5065403;28;20035;-77
2021/08/24 05:51:42;;;;;;;12.32;9.00;;;13.60;99.90;;;;;;5053866;28;20044;-75
2021/08/24 05:54:08;;;;;;;11.15;7.82;;;13.50;99.90;;;;;;5063404;28;20029;-76
2021/08/24 05:56:34;;;;;;;8.85;7.15;;;13.50;99.90;;;;;;5062525;28;20414;-75
2021/08/24 05:59:00;;;;;;;9.32;7.65;;;13.50;99.90;;;;;;5068406;28;20435;-76
2021/08/24 06:01:28;;;;;;;9.02;6.70;;;13.50;99.90;;;;;;5052775;28;20057;-75
2021/08/24 06:03:55;;;;;;;8.20;6.57;;;13.50;99.90;;;;;;5068423;28;20032;-75
2021/08/24 06:06:24;;;;;;;8.35;6.90;;;13.40;99.90;;;;;;5054451;28;20037;-74
2021/08/24 06:08:49;;;;;;;6.32;4.75;;;13.50;99.90;;;;;;5049196;27;20044;-78
2021/08/24 06:11:22;;;;;;;7.22;6.45;;;13.40;99.90;;;;;;5052340;28;20028;-77
2021/08/24 06:13:47;;;;;;;8.70;6.03;;;13.40;99.90;;;;;;5041444;28;20037;-78
2021/08/24 06:16:13;;;;;;;8.35;5.70;;;13.40;99.90;;;;;;5048253;28;20036;-78
2021/08/24 06:18:40;;;;;;;8.63;6.32;;;13.40;99.90;;;;;;5036028;28;20413;-78
2021/08/24 06:21:05;;;;;;;6.40;4.45;;;13.40;99.90;;;;;;5066026;28;20104;-78
2021/08/24 06:23:32;;;;;;;6.30;5.15;;;13.40;99.90;;;;;;5043211;28;20040;-79
2021/08/24 06:25:58;;;;;;;4.72;4.25;;;13.40;99.90;;;;;;5048860;28;20089;-78
2021/08/24 06:28:24;;;;;;;4.18;3.15;;;13.40;99.90;;;;;;5047444;28;20051;-78
2021/08/24 06:30:49;;;;;;;3.85;3.40;;;13.40;99.90;;;;;;5047928;28;20444;-78
2021/08/24 06:33:15;;;;;;;3.90;3.45;;;13.40;99.90;;;;;;5046004;28;20112;-78
2021/08/24 06:35:44;;;;;;;3.75;3.13;;;13.40;99.90;;;;;;5050960;28;20381;-78
2021/08/24 06:38:09;;;;;;;3.85;3.00;;;13.40;99.90;;;;;;5067422;28;20044;-78
2021/08/24 06:40:35;;;;;;;3.53;2.97;;;13.40;99.90;;;;;;5051104;28;20048;-78
2021/08/24 06:43:00;;;;;;;3.95;3.35;;;13.40;99.90;;;;;;5066005;28;20021;-77
2021/08/24 06:45:30;;;;;;;2.97;2.55;;;13.40;99.90;;;;;;5059562;28;20045;-77
2021/08/24 06:47:56;;;;;;;4.38;3.20;;;13.40;99.90;;;;;;5050221;28;20924;-77
2021/08/24 06:50:23;;;;;;;3.58;3.28;;;13.40;99.90;;;;;;5031764;28;20070;-77
2021/08/24 06:52:49;;;;;;;3.38;3.08;;;13.40;99.90;;;;;;5050380;28;20060;-77
2021/08/24 06:55:16;;;;;;;2.85;2.63;;;13.40;99.90;;;;;;5050262;28;20206;-77
2021/08/24 06:57:42;;;;;;;2.95;2.42;;;13.40;99.90;;;;;;5052589;27;20081;-77
2021/08/24 07:00:15;;;;;;;2.80;2.60;;;13.40;99.90;;;;;;5018590;28;20041;-76
2021/08/24 07:02:40;;;;;;;5.60;2.70;;;13.40;99.90;;;;;;5032178;28;20025;-77
2021/08/24 07:05:07;;;;;;;3.08;2.78;;;13.50;99.90;;;;;;5064476;28;20549;-77
2021/08/24 07:07:33;;;;;;;3.60;2.50;;;13.50;99.90;;;;;;5070049;28;20033;-77
2021/08/24 07:09:59;;;;;;;2.58;2.38;;;13.50;99.90;;;;;;5058954;28;20094;-77
2021/08/24 07:12:24;;;;;;;2.50;2.30;;;13.50;99.90;;;;;;5031736;28;20017;-77
2021/08/24 07:14:50;;;;;;;2.15;1.95;;;13.50;99.90;;;;;;5065774;28;20486;-77
2021/08/24 07:17:17;;;;;;;2.00;1.77;;;13.50;99.90;;;;;;5068703;27;20032;-77
2021/08/24 07:19:42;;;;;;;2.53;2.42;;;13.40;99.90;;;;;;5051377;28;20036;-77
2021/08/24 07:22:08;;;;;;;1.92;1.83;;;13.50;99.90;;;;;;5045664;28;20159;-77
2021/08/24 07:24:34;;;;;;;1.52;1.42;;;13.50;99.90;;;;;;5062552;28;20041;-77
2021/08/24 07:26:59;;;;;;;3.65;2.20;;;13.50;99.90;;;;;;5053493;28;20033;-77
2021/08/24 07:29:25;;;;;;;2.72;1.70;;;13.50;99.90;;;;;;5049571;28;20390;-77
2021/08/24 07:31:51;;;;;;;1.88;1.77;;;13.40;99.90;;;;;;5031526;28;20029;-77
2021/08/24 07:34:16;;;;;;;1.35;1.25;;;13.50;99.90;;;;;;5059179;28;20036;-77
2021/08/24 07:36:42;;;;;;;2.25;2.10;;;13.50;99.90;;;;;;5069227;27;20044;-77
2021/08/24 07:39:08;;;;;;;1.40;1.30;;;13.40;99.90;;;;;;5046099;28;20048;-77
2021/08/24 07:41:34;;;;;;;1.67;1.58;;;13.30;99.90;;;;;;5068714;28;20025;-77
2021/08/24 07:44:00;;;;;;;1.25;1.15;;;13.30;99.90;;;;;;5066807;28;20048;-77
2021/08/24 07:46:25;;;;;;;1.70;1.60;;;13.20;99.90;;;;;;5049397;28;20021;-78
2021/08/24 07:48:51;;;;;;;2.83;1.23;;;13.20;99.90;;;;;;5065056;28;20055;-77
2021/08/24 07:51:20;;;;;;;1.10;1.10;;;13.20;99.90;;;;;;5051986;28;20041;-78
2021/08/24 07:53:47;;;;;;;1.10;1.10;;;13.20;99.90;;;;;;5050868;28;20512;-78
2021/08/24 07:56:12;;;;;;;1.30;1.20;;;13.20;99.90;;;;;;5064573;28;20032;-78
2021/08/24 07:58:38;;;;;;;1.95;1.85;;;13.20;99.90;;;;;;5068818;28;20093;-78
2021/08/24 08:01:04;;;;;;;0.90;0.90;;;13.20;99.90;;;;;;5051754;28;20029;-78
2021/08/24 08:03:30;;;;;;;1.73;1.17;;;13.10;99.90;;;;;;5047861;28;20397;-78
2021/08/24 08:05:55;;;;;;;2.00;1.17;;;13.20;99.90;;;;;;5049741;28;20373;-78
2021/08/24 08:08:21;;;;;;;1.02;0.95;;;13.10;99.90;;;;;;5065942;28;20465;-78
2021/08/24 08:10:47;;;;;;;0.80;0.80;;;13.10;99.90;;;;;;5051413;28;20033;-78
2021/08/24 08:13:12;;;;;;;1.30;1.20;;;13.10;99.90;;;;;;5049482;28;20465;-78
2021/08/24 08:15:38;;;;;;;1.10;1.10;;;13.00;99.90;;;;;;5069426;28;20111;-78
2021/08/24 08:18:06;;;;;;;1.00;1.00;;;12.90;99.90;;;;;;5053278;27;20041;-79
2021/08/24 08:20:33;;;;;;;1.00;1.00;;;13.00;99.90;;;;;;5031392;28;20048;-78
2021/08/24 08:23:01;;;;;;;1.27;1.17;;;12.90;99.90;;;;;;5051394;28;20040;-78
2021/08/24 08:25:27;;;;;;;0.90;0.90;;;12.80;99.90;;;;;;5068039;28;20481;-78
2021/08/24 08:27:53;;;;;;;1.20;1.10;;;12.80;99.90;;;;;;5065936;28;20120;-78
2021/08/24 08:30:19;;;;;;;1.40;1.20;;;12.80;99.90;;;;;;5047854;28;20066;-78
2021/08/24 08:32:45;;;;;;;1.15;1.08;;;12.80;99.90;;;;;;5052058;28;20037;-78
2021/08/24 08:35:12;;;;;;;1.55;1.45;;;12.70;99.90;;;;;;5048291;28;20045;-78
2021/08/24 08:37:38;;;;;;;3.05;1.48;;;12.70;99.90;;;;;;5049532;28;20437;-78
2021/08/24 08:40:06;;;;;;;1.88;1.77;;;12.70;99.90;;;;;;5068087;28;20123;-79
2021/08/24 08:42:48;;;;;;;1.65;1.55;;;12.80;99.90;;;;;;5067535;28;20037;-78
2021/08/24 08:45:22;;;;;;;2.53;1.95;;;12.80;99.90;;;;;;5047832;28;20025;-79
2021/08/24 08:48:00;;;;;;;2.38;2.17;;;12.80;99.90;;;;;;5048708;28;20546;-78
2021/08/24 08:50:45;;;;;;;2.28;2.08;;;12.80;99.90;;;;;;5043831;28;20474;-78
2021/08/24 08:53:29;;;;;;;2.58;2.38;;;12.80;99.90;;;;;;5048003;28;20025;-78
2021/08/24 08:56:08;;;;;;;2.10;2.00;;;12.80;99.90;;;;;;5066983;28;20111;-79
2021/08/24 08:58:46;;;;;;;2.60;2.40;;;12.80;99.90;;;;;;5063882;28;20025;-79
2021/08/24 09:01:32;;;;;;;3.20;2.22;;;12.90;99.90;;;;;;5055181;28;20096;-78
2021/08/24 09:04:06;;;;;;;2.95;2.67;;;12.90;99.90;;;;;;5043350;28;20566;-78
2021/08/24 09:06:32;;;;;;;3.70;3.40;;;12.90;99.90;;;;;;5083603;28;20063;-78
2021/08/24 09:09:00;;;;;;;4.10;3.70;;;12.90;99.90;;;;;;5058452;28;20474;-78
2021/08/24 09:11:31;;;;;;;4.15;2.78;;;13.00;99.90;;;;;;5047574;28;20690;-78
2021/08/24 09:14:36;;;;;;;3.97;3.58;;;12.90;99.90;;;;;;5061766;28;20060;-78
2021/08/24 09:17:10;;;;;;;3.92;3.53;;;13.00;99.90;;;;;;5067155;27;20629;-78
2021/08/24 09:20:13;;;;;;;4.28;3.88;;;13.00;99.90;;;;;;5054695;28;20040;-78
2021/08/24 09:22:40;;;;;;;;;;;13.00;99.90;;;;;;5048952;28;20029;-79
2021/08/24 09:25:15;;;;;;;4.70;3.42;;;13.00;99.90;;;;;;5041323;28;20384;-79
2021/08/24 09:28:06;;;;;;;4.20;3.75;;;13.10;99.90;;;;;;5050138;28;20033;-78
2021/08/24 09:30:32;;;;;;;4.40;3.88;;;13.20;99.90;;;;;;5068047;28;20115;-78
2021/08/24 09:33:06;;;;;;;4.47;3.67;;;13.30;99.90;;;;;;5068430;28;20120;-78
2021/08/24 09:35:35;;;;;;;3.85;3.45;;;13.30;99.90;;;;;;5067993;28;20036;-78
2021/08/24 09:38:27;;;;;;;4.65;4.03;;;13.30;99.90;;;;;;5049750;28;20079;-78
2021/08/24 09:41:24;;;;;;;5.15;3.90;;;13.30;99.90;;;;;;5030515;28;20486;-77
2021/08/24 09:43:54;;;;;;;6.88;4.35;;;13.30;99.90;;;;;;5047571;28;20072;-78
2021/08/24 09:46:20;;;;;;;3.92;3.35;;;13.40;99.90;;;;;;5047483;28;20030;-78
2021/08/24 09:49:04;;;;;;;5.60;4.15;;;13.40;99.90;;;;;;5047947;28;20403;-78
2021/08/24 09:51:38;;;;;;;4.05;3.63;;;13.50;99.90;;;;;;5046683;28;20040;-77
2021/08/24 09:54:25;;;;;;;3.35;3.05;;;13.50;99.90;;;;;;5065669;28;20554;-78
2021/08/24 09:56:58;;;;;;;7.45;5.00;;;13.50;99.90;;;;;;5067156;28;20055;-78
2021/08/24 09:59:46;;;;;;;4.50;4.10;;;13.50;99.90;;;;;;5066011;28;20052;-77
2021/08/24 10:02:35;;;;;;;4.63;3.22;;;13.40;99.90;;;;;;5062056;28;20029;-77
2021/08/24 10:05:01;;;;;;;4.07;3.30;;;13.30;99.90;;;;;;5066781;28;20043;-78
2021/08/24 10:07:32;;;;;;;3.83;3.20;;;13.30;99.90;;;;;;5048261;28;20032;-78
2021/08/24 10:09:59;;;;;;;4.82;2.83;;;13.30;99.90;;;;;;5066928;28;20033;-78
2021/08/24 10:12:30;;;;;;;4.05;3.60;;;13.30;99.90;;;;;;5065040;28;20119;-77
2021/08/24 10:14:57;;;;;;;3.60;3.30;;;13.40;99.90;;;;;;5047930;28;20033;-78
2021/08/24 10:17:28;;;;;;;3.95;3.00;;;13.30;99.90;;;;;;5066225;27;20124;-78
2021/08/24 10:19:56;;;;;;;3.78;3.45;;;13.30;99.90;;;;;;5067626;28;20041;-79
2021/08/24 10:22:37;;;;;;;4.57;3.63;;;13.30;99.90;;;;;;5066801;28;20036;-79
2021/08/24 10:25:17;;;;;;;4.03;3.72;;;13.30;99.90;;;;;;5066117;28;20036;-78
2021/08/24 10:27:55;;;;;;;6.28;3.33;;;13.20;99.90;;;;;;5053246;28;20036;-78
2021/08/24 10:30:57;;;;;;;4.28;3.50;;;13.20;99.90;;;;;;5070458;28;20481;-79
2021/08/24 10:33:22;;;;;;;3.63;3.15;;;13.20;99.90;;;;;;5070080;27;20046;-78
2021/08/24 10:35:59;;;;;;;2.88;2.60;;;13.20;99.90;;;;;;5070843;28;20033;-78
2021/08/24 10:38:53;;;;;;;3.00;2.70;;;13.20;99.90;;;;;;5070384;28;20052;-79
2021/08/24 10:41:38;;;;;;;3.97;3.38;;;13.20;99.90;;;;;;5069932;28;20036;-79
2021/08/24 10:44:18;;;;;;;4.00;3.33;;;13.10;99.90;;;;;;5069307;28;20044;-79
2021/08/24 10:47:03;;;;;;;5.15;3.00;;;13.20;99.90;;;;;;5069999;28;20032;-80
2021/08/24 10:49:29;;;;;;;4.55;2.97;;;13.10;99.90;;;;;;5046440;28;20048;-78
2021/08/24 10:52:20;;;;;;;6.32;3.95;;;13.10;99.90;;;;;;5068427;28;20040;-78
2021/08/24 10:55:01;;;;;;;3.10;2.80;;;13.10;99.90;;;;;;5050932;28;20032;-78
2021/08/24 10:57:52;;;;;;;3.63;3.33;;;13.10;99.90;;;;;;5068177;28;20028;-78
2021/08/24 11:00:37;;;;;;;4.28;3.88;;;13.10;99.90;;;;;;5066957;28;20119;-79
2021/08/24 11:03:42;;;;;;;5.10;3.08;;;13.10;99.90;;;;;;5049652;28;20088;-78
2021/08/24 11:06:07;;;;;;;4.10;3.70;;;13.10;99.90;;;;;;5065480;28;20438;-78
2021/08/24 11:08:45;;;;;;;4.25;3.30;;;13.10;99.90;;;;;;5069094;28;20036;-79
2021/08/24 11:11:34;;;;;;;3.03;2.83;;;12.90;99.90;;;;;;5049156;28;20116;-79
2021/08/24 11:14:14;;;;;;;3.15;2.90;;;12.90;99.90;;;;;;5070093;28;20036;-79
2021/08/24 11:17:01;;;;;;;4.20;3.58;;;13.00;99.90;;;;;;5070223;27;20066;-79
2021/08/24 11:19:54;;;;;;;4.72;3.30;;;13.00;99.90;;;;;;5047737;28;20137;-79
2021/08/24 11:22:35;;;;;;;;;;;13.00;99.90;;;;;;5067316;28;20574;-78
2021/08/24 11:25:23;;;;;;;4.20;3.80;;;13.10;99.90;;;;;;5051448;28;19912;-79
2021/08/24 11:28:17;;;;;;;6.03;3.92;;;13.10;99.90;;;;;;5049950;28;20036;-79
2021/08/24 11:30:54;;;;;;;4.38;3.97;;;13.10;99.90;;;;;;5051386;28;20035;-78
2021/08/24 11:33:39;;;;;;;5.40;4.80;;;13.10;99.90;;;;;;5050520;27;20029;-78
2021/08/24 11:36:21;;;;;;;4.97;4.47;;;13.20;99.90;;;;;;5068526;28;20039;-78
2021/08/24 11:38:55;;;;;;;5.95;4.50;;;13.20;99.90;;;;;;5066584;28;20043;-78
2021/08/24 11:41:23;;;;;;;4.82;4.43;;;13.20;99.90;;;;;;5067217;28;20040;-78
2021/08/24 11:44:17;;;;;;;5.85;5.28;;;13.30;99.90;;;;;;5069074;28;20032;-79
2021/08/24 11:47:00;;;;;;;5.38;4.88;;;13.30;99.90;;;;;;5068397;28;20115;-79
2021/08/24 11:49:44;;;;;;;;;;;13.40;99.90;;;;;;5063764;28;20074;-79
2021/08/24 11:52:36;;;;;;;5.22;4.72;;;13.40;99.90;;;;;;5067956;28;19987;-79
2021/08/24 11:55:05;;;;;;;6.05;5.15;;;13.40;99.90;;;;;;5131031;27;20112;-79
2021/08/24 11:57:33;;;;;;;6.40;5.22;;;13.40;99.90;;;;;;5071301;28;20520;-79
2021/08/24 11:59:59;;;;;;;9.65;4.47;;;13.40;99.90;;;;;;5071227;28;20072;-79
2021/08/24 12:02:37;;;;;;;4.80;4.40;;;13.40;99.90;;;;;;5071304;27;20508;-79
2021/08/24 12:05:04;;;;;;;5.40;4.53;;;13.50;99.90;;;;;;5137252;27;20048;-79
2021/08/24 12:07:38;;;;;;;5.07;4.68;;;13.50;99.90;;;;;;5069250;28;20035;-79
2021/08/24 12:10:26;;;;;;;4.75;4.25;;;13.40;99.90;;;;;;5062633;28;20033;-79
2021/08/24 12:13:04;;;;;;;4.82;4.43;;;13.40;99.90;;;;;;5069144;28;20111;-78
2021/08/24 12:15:43;;;;;;;4.53;3.90;;;13.50;99.90;;;;;;5068480;27;20499;-78
2021/08/24 12:18:17;;;;;;;4.15;3.75;;;13.40;99.90;;;;;;5066425;27;20036;-79
2021/08/24 12:20:49;;;;;;;4.55;4.13;;;13.30;99.90;;;;;;5067386;28;20177;-79
2021/08/24 12:23:30;;;;;;;4.43;3.97;;;13.40;99.90;;;;;;5064803;28;20044;-78
2021/08/24 12:25:56;;;;;;;4.15;3.75;;;13.30;99.90;;;;;;5046277;28;20052;-79
2021/08/24 12:28:23;;;;;;;4.05;3.75;;;13.30;99.90;;;;;;5049172;28;20117;-78
2021/08/24 12:30:58;;;;;;;4.70;4.22;;;13.30;99.90;;;;;;5057537;28;20037;-78
2021/08/24 12:33:32;;;;;;;4.13;3.72;;;13.30;99.90;;;;;;5049595;28;20069;-78
2021/08/24 12:36:20;;;;;;;5.32;4.75;;;13.30;99.90;;;;;;5049595;28;20066;-78
2021/08/24 12:38:49;;;;;;;4.00;3.65;;;13.40;99.90;;;;;;5065643;28;20107;-78
2021/08/24 12:41:44;;;;;;;3.88;3.45;;;13.30;99.90;;;;;;5048206;28;20039;-78
2021/08/24 12:44:13;;;;;;;4.80;3.60;;;13.30;99.90;;;;;;5063534;28;20036;-78
2021/08/24 12:46:45;;;;;;;5.32;4.05;;;13.30;99.90;;;;;;5061612;28;20033;-77
2021/08/24 12:49:14;;;;;;;5.25;4.07;;;13.30;99.90;;;;;;5043124;28;20079;-77
2021/08/24 12:51:44;;;;;;;4.55;4.10;;;13.30;99.90;;;;;;5052233;28;20043;-77
2021/08/24 12:54:11;;;;;;;4.82;4.00;;;13.30;99.90;;;;;;5048648;28;20037;-78
2021/08/24 12:56:42;;;;;;;3.80;3.45;;;13.20;99.90;;;;;;5052233;28;20033;-78
2021/08/24 12:59:24;;;;;;;5.28;3.70;;;13.30;99.90;;;;;;5042682;28;20053;-78
2021/08/24 13:02:09;;;;;;;4.80;3.63;;;13.20;99.90;;;;;;5062510;28;20035;-78